Date,TemperatureHighF,TemperatureAvgF,TemperatureLowF,DewpointHighF,DewpointAvgF,DewpointLowF,HumidityHigh,HumidityAvg,HumidityLow,PressureMaxIn,PressureMinIn,WindSpeedMaxMPH,WindSpeedAvgMPH,GustSpeedMaxMPH,PrecipitationSumIn
2013-1-1,31,23,8,26,13,-1,81,67,55,29.89,29.63,11,2,11,0.00
2013-1-2,22,10,0,11,0,-10,78,64,49,30.10,29.85,10,1,10,0.00
2013-1-3,16,6,-2,1,-5,-11,73,60,45,30.11,29.95,6,0,6,0.00
2013-1-4,34,21,3,24,13,-3,86,73,57,29.96,29.72,15,1,15,0.03
2013-1-5,34,27,16,26,18,11,82,69,46,30.19,29.73,11,1,11,0.02
2013-1-6,34,26,16,27,20,11,88,79,69,30.15,29.86,3,0,3,0.03
2013-1-7,34,25,12,29,17,7,89,72,49,30.32,29.88,8,0,8,0.02
2013-1-8,40,23,8,24,15,4,87,72,50,30.31,30.18,7,0,7,0.01
2013-1-9,39,28,19,30,22,16,91,80,63,30.34,29.89,11,0,11,0.00
2013-1-10,40,36,27,31,26,21,81,67,55,30.46,29.91,15,3,15,0.00
2013-1-11,36,30,22,31,24,19,94,79,56,30.46,30.16,9,0,9,0.14
2013-1-12,39,35,33,38,34,31,98,97,94,30.16,30.07,2,0,2,0.06
2013-1-13,42,37,34,42,37,34,100,99,98,30.10,29.91,7,0,7,0.01
2013-1-14,53,40,33,48,36,26,100,86,48,30.21,29.78,9,1,16,0.00
2013-1-15,38,32,27,27,24,22,88,74,53,30.27,30.17,5,0,5,0.00
2013-1-16,32,29,28,29,25,20,93,86,66,30.21,29.75,5,0,5,0.00
2013-1-17,38,27,18,33,20,5,96,77,54,30.08,29.75,10,1,10,0.22
2013-1-18,18,13,5,5,-3,-11,63,48,36,30.37,30.03,11,1,11,0.01
2013-1-19,39,29,16,24,16,3,70,58,46,30.30,29.79,7,1,7,0.00
2013-1-20,46,33,20,31,20,3,80,60,40,29.86,29.44,17,3,17,0.11
2013-1-21,25,18,10,15,4,-3,87,56,35,30.01,29.77,9,1,9,0.00
2013-1-22,22,13,1,14,5,-6,87,71,33,30.01,29.72,12,1,12,0.03
2013-1-23,6,-1,-6,-6,-13,-19,78,57,33,30.10,29.99,12,1,12,0.00
2013-1-24,12,7,3,-10,-12,-16,55,41,30,30.20,30.02,18,3,18,0.00
2013-1-25,16,8,0,0,-7,-11,63,50,37,30.26,30.03,9,1,9,0.00
2013-1-26,18,11,4,4,-3,-10,76,55,32,30.18,29.98,9,1,9,0.00
2013-1-27,23,14,8,2,-2,-8,66,49,29,30.44,30.17,13,2,13,0.00
2013-1-28,23,16,8,16,5,-8,88,64,37,30.42,30.02,5,0,5,0.00
2013-1-29,32,25,13,30,21,9,94,85,69,30.17,30.03,4,0,4,0.18
2013-1-30,51,37,31,51,36,30,100,97,94,30.11,29.35,9,0,9,0.46
2013-1-31,56,44,26,56,37,7,100,78,43,29.45,28.80,22,6,22,0.76
2013-2-1,28,22,16,17,8,2,78,56,38,30.02,29.44,10,3,13,0.00
2013-2-2,23,18,10,11,5,1,76,58,41,30.17,30.00,9,0,9,0.00
2013-2-3,27,21,14,14,12,9,85,67,53,30.01,29.68,8,0,8,0.02
2013-2-4,29,20,13,14,5,-4,78,54,30,29.85,29.66,15,2,15,0.00
2013-2-5,27,16,6,10,2,-2,72,54,33,29.99,29.85,7,0,7,0.00
2013-2-6,35,23,14,23,12,-8,87,65,32,30.27,29.89,13,1,13,0.01
2013-2-7,23,16,8,0,-6,-10,52,38,25,30.50,30.25,12,1,12,0.00
2013-2-8,19,15,13,12,8,-1,85,74,40,30.47,29.79,18,1,18,0.52
2013-2-9,21,15,8,15,9,0,88,79,67,30.18,29.72,25,2,25,0.57
2013-2-10,32,16,3,12,3,-5,75,58,31,30.38,30.18,10,1,10,0.14
2013-2-11,29,20,11,28,15,2,94,82,64,30.31,29.58,6,0,6,0.41
2013-2-12,41,34,29,30,28,25,95,78,56,29.79,29.55,13,2,13,0.00
2013-2-13,38,30,24,25,20,18,78,68,50,29.80,29.69,8,0,8,0.00
2013-2-14,38,28,22,23,19,16,82,68,45,29.94,29.67,6,0,6,0.00
2013-2-15,47,32,19,28,22,15,83,66,43,29.93,29.84,8,0,8,0.00
2013-2-16,37,31,24,26,20,6,90,64,45,29.92,29.70,8,0,8,0.01
2013-2-17,24,17,11,11,4,-1,82,57,42,29.70,29.35,19,3,19,0.02
2013-2-18,26,17,8,2,-2,-8,62,45,25,30.07,29.60,21,3,21,0.00
2013-2-19,39,28,14,34,12,-8,97,55,28,30.12,29.52,16,1,16,0.14
2013-2-20,33,28,21,33,21,13,98,77,57,29.69,29.47,13,2,13,0.03
2013-2-21,25,20,16,14,10,5,77,66,50,30.19,29.68,21,2,21,0.00
2013-2-22,38,27,15,22,17,12,88,68,42,30.39,30.19,9,1,9,0.00
2013-2-23,33,30,27,30,26,21,97,86,72,30.29,29.92,7,0,7,0.03
2013-2-24,32,31,29,31,29,27,97,95,91,29.92,29.71,0,0,0,0.82
2013-2-25,36,31,24,34,29,22,96,90,83,30.19,29.86,3,0,3,0.00
2013-2-26,38,33,30,32,29,26,96,86,73,30.30,30.15,10,1,10,0.00
2013-2-27,35,33,30,34,30,27,94,90,80,30.16,29.60,15,2,15,0.35
2013-2-28,41,34,30,36,32,28,97,90,73,29.60,29.49,8,0,8,0.65
2013-3-1,36,33,29,34,29,26,98,85,69,29.64,29.48,8,0,8,0.00
2013-3-2,40,32,26,28,25,22,91,77,58,29.64,29.58,7,1,7,0.00
2013-3-3,37,30,26,28,25,22,91,81,66,29.61,29.52,6,1,6,0.11
2013-3-4,34,28,24,25,20,17,85,73,63,29.75,29.55,13,2,13,0.00
2013-3-5,42,32,22,31,24,17,90,75,50,30.05,29.75,9,0,9,0.01
2013-3-6,36,33,30,31,27,24,91,79,65,30.16,30.05,22,3,22,0.03
2013-3-7,33,30,29,28,25,22,90,81,67,30.14,30.03,21,3,21,0.09
2013-3-8,44,34,28,29,23,16,91,67,32,30.17,29.97,15,1,15,0.08
2013-3-9,54,36,22,26,18,10,86,55,19,30.34,30.15,11,0,11,0.00
2013-3-10,46,34,22,28,24,19,91,72,43,30.38,30.25,12,1,12,0.00
2013-3-11,49,39,30,35,30,27,92,71,45,30.28,30.09,10,1,10,0.00
2013-3-12,48,43,35,48,42,33,99,97,87,30.10,29.66,16,3,16,0.66
2013-3-13,45,38,28,44,30,22,99,77,51,29.73,29.66,9,1,13,0.00
2013-3-14,33,27,17,25,16,4,88,65,45,29.79,29.63,16,2,16,0.00
2013-3-15,36,24,14,27,12,2,93,61,31,29.81,29.58,12,1,12,0.00
2013-3-16,32,25,18,23,14,7,90,65,40,29.86,29.65,7,0,7,0.08
2013-3-17,32,22,14,13,6,-2,77,52,31,30.29,29.86,15,1,15,0.00
2013-3-18,34,23,8,19,2,-4,68,43,22,30.42,30.22,9,0,9,0.00
2013-3-19,31,27,22,28,24,20,92,89,73,30.23,29.69,15,2,15,0.73
2013-3-20,34,27,22,22,19,15,91,74,57,29.73,29.63,14,2,14,0.02
2013-3-21,38,27,14,19,14,8,84,58,31,29.74,29.56,7,0,7,0.00
2013-3-22,37,28,19,23,17,11,79,62,39,29.68,29.58,8,1,8,0.00
2013-3-23,38,30,22,22,19,15,77,64,43,29.72,29.57,17,2,17,0.00
2013-3-24,42,34,27,25,22,20,78,63,44,29.80,29.71,11,1,11,0.00
2013-3-25,42,32,22,28,23,18,85,70,50,29.76,29.53,16,1,16,0.00
2013-3-26,46,37,30,28,23,16,86,59,31,29.75,29.55,11,1,11,0.00
2013-3-27,48,37,27,32,25,19,90,63,40,29.86,29.72,10,1,10,0.00
2013-3-28,46,37,32,34,31,28,97,79,54,29.99,29.86,0,0,1,0.17
2013-3-29,51,41,34,35,31,28,83,68,47,30.02,29.96,10,0,10,0.00
2013-3-30,52,40,30,29,22,13,87,54,24,30.07,29.98,9,1,9,0.00
2013-3-31,56,40,25,38,22,13,95,52,25,30.09,29.76,17,1,17,0.07
2013-4-1,55,40,29,42,34,12,99,80,46,29.76,29.44,15,2,15,0.49
2013-4-2,37,30,25,18,11,7,55,46,33,29.84,29.71,14,3,17,0.00
2013-4-3,42,32,24,15,10,5,56,41,23,30.09,29.83,17,4,17,0.00
2013-4-4,52,39,27,21,14,8,60,38,20,30.23,29.94,12,2,12,0.00
2013-4-5,57,42,32,26,23,16,69,49,25,29.94,29.63,11,1,11,0.00
2013-4-6,41,32,24,16,8,2,57,37,22,30.30,29.84,13,2,13,0.00
2013-4-7,55,44,25,33,22,7,68,43,27,30.29,29.91,18,2,18,0.00
2013-4-8,59,46,35,36,32,26,93,61,30,30.07,29.89,18,1,18,0.00
2013-4-9,56,46,41,46,41,34,98,83,58,30.05,29.85,10,0,10,0.34
2013-4-10,57,49,42,50,44,38,99,84,63,29.94,29.84,6,0,6,0.68
2013-4-11,46,42,38,44,32,18,99,71,40,30.13,29.83,8,0,8,0.17
2013-4-12,38,32,30,31,27,17,96,82,43,30.18,29.84,9,0,9,0.08
2013-4-13,50,38,31,39,34,30,97,84,54,29.90,29.77,5,0,5,0.47
2013-4-14,51,41,33,38,33,27,96,76,47,30.18,29.87,12,1,12,0.00
2013-4-15,55,42,28,35,30,26,94,66,36,30.35,30.18,13,1,13,0.00
2013-4-16,63,52,36,51,42,31,88,69,45,30.36,29.97,19,3,19,0.04
2013-4-17,61,51,38,52,33,25,90,54,28,30.31,29.97,11,1,11,0.00
2013-4-18,59,47,30,37,29,20,82,53,32,30.41,30.09,16,3,16,0.00
2013-4-19,73,60,49,60,52,34,93,76,53,30.09,29.54,18,3,18,0.16
2013-4-20,62,47,37,60,35,20,95,66,38,30.18,29.55,14,4,14,0.26
2013-4-21,50,39,31,25,19,13,63,45,24,30.66,30.18,11,1,11,0.00
2013-4-22,52,38,29,29,23,17,83,58,27,30.75,30.59,16,2,16,0.00
2013-4-23,39,35,29,38,32,26,96,87,78,30.59,30.15,13,1,13,0.00
2013-4-24,73,56,39,51,42,34,96,65,26,30.15,29.70,11,1,11,0.00
2013-4-25,60,52,38,50,34,23,86,51,28,30.27,29.69,12,1,12,0.01
2013-4-26,59,46,32,38,29,24,79,56,30,30.42,30.27,12,0,12,0.00
2013-4-27,65,50,32,39,32,21,90,56,21,30.42,30.25,12,0,12,0.00
2013-4-28,68,52,35,40,35,31,90,56,27,30.32,30.18,17,2,17,0.00
2013-4-29,69,54,40,43,37,31,74,54,32,30.25,30.14,12,1,12,0.00
2013-4-30,71,58,47,41,34,28,64,42,25,30.35,30.22,14,1,14,0.00
2013-5-1,74,57,36,37,32,26,72,42,21,30.45,30.34,11,1,11,0.00
2013-5-2,78,55,41,45,36,25,76,51,22,30.50,30.33,16,2,16,0.00
2013-5-3,66,53,37,46,39,33,88,63,39,30.53,30.36,12,1,12,0.00
2013-5-4,71,53,39,48,38,24,97,63,19,30.37,30.24,15,1,15,0.00
2013-5-5,69,50,32,41,35,30,94,62,25,30.33,30.20,12,1,12,0.00
2013-5-6,72,54,34,46,37,27,96,60,20,30.26,30.10,10,1,10,0.00
2013-5-7,78,62,42,55,45,31,97,63,19,30.16,30.05,14,0,14,0.00
2013-5-8,72,62,51,60,56,50,97,82,54,30.19,30.04,19,2,19,0.09
2013-5-9,64,59,54,59,56,54,100,92,75,30.04,29.87,8,1,8,0.48
2013-5-10,77,64,54,59,56,51,100,77,43,29.94,29.86,8,0,8,0.01
2013-5-11,66,61,57,63,58,54,98,91,80,29.87,29.65,11,1,11,0.46
2013-5-12,67,56,44,59,48,27,100,76,45,29.76,29.55,8,0,8,0.00
2013-5-13,54,45,39,35,30,26,72,57,36,30.04,29.76,9,1,9,0.00
2013-5-14,58,46,35,36,30,23,86,57,29,30.06,29.96,9,0,9,0.00
2013-5-15,64,47,31,48,35,27,92,67,30,30.04,29.70,11,1,11,0.15
2013-5-16,76,62,44,58,43,36,100,58,27,29.82,29.59,14,1,14,0.00
2013-5-17,65,54,45,44,40,33,80,61,31,30.21,29.82,8,0,8,0.00
2013-5-18,72,55,40,47,41,30,94,64,23,30.30,30.20,11,0,11,0.00
2013-5-19,66,53,43,52,48,42,98,83,53,30.34,30.19,10,1,10,0.27
2013-5-20,70,61,52,64,58,52,100,91,76,30.19,29.93,6,-13,6,0.11
2013-5-21,71,58,49,63,55,48,99,91,71,30.09,29.89,9,1,9,0.53
2013-5-22,59,53,49,56,52,49,100,96,88,29.99,29.88,14,0,14,0.84
2013-5-23,68,58,50,66,57,49,98,96,85,29.93,29.76,13,0,13,0.24
2013-5-24,68,59,46,65,56,44,99,91,71,29.85,29.62,7,0,7,0.42
2013-5-25,47,44,33,47,43,32,99,98,96,29.85,29.74,7,0,7,0.92
2013-5-26,52,43,33,44,38,32,98,83,59,30.07,29.71,12,1,12,0.33
2013-5-27,66,51,35,46,38,31,96,64,29,30.19,30.07,11,0,11,0.00
2013-5-28,70,55,38,46,39,31,94,60,29,30.26,30.16,10,0,10,0.00
2013-5-29,56,53,50,55,52,42,99,94,72,30.18,30.01,6,0,6,0.26
2013-5-30,82,68,52,69,61,52,100,82,50,30.08,30.00,9,0,9,0.07
2013-5-31,88,73,60,69,63,58,99,73,40,30.08,29.91,3,0,16,0.09
2013-6-1,90,77,64,71,64,58,95,67,35,29.94,29.81,9,0,9,0.00
2013-6-2,88,74,65,71,66,62,99,79,45,29.83,29.63,14,1,14,0.52
2013-6-3,77,66,56,66,59,47,100,79,43,29.82,29.72,0,-4,0,0.00
2013-6-4,64,56,46,48,43,39,83,63,47,30.10,29.82,12,1,12,0.00
2013-6-5,71,59,46,50,42,33,87,57,27,30.19,30.09,8,0,8,0.00
2013-6-6,73,62,52,53,47,40,81,60,37,30.21,30.10,11,1,11,0.00
2013-6-7,57,53,50,52,50,48,95,89,75,30.12,29.90,8,0,8,1.09
2013-6-8,71,61,51,64,57,50,98,86,71,30.01,29.70,13,0,13,0.73
2013-6-9,78,65,54,61,55,51,96,71,45,30.17,30.01,5,0,5,0.00
2013-6-10,70,60,52,59,54,49,95,80,61,30.20,30.03,8,0,8,0.16
2013-6-11,60,56,53,56,54,51,96,91,80,30.03,29.59,11,0,11,1.26
2013-6-12,66,59,54,58,54,51,97,83,67,29.83,29.57,11,1,11,0.01
2013-6-13,68,58,50,57,52,47,95,80,53,29.82,29.72,7,0,7,0.21
2013-6-14,78,63,53,59,53,47,96,74,35,29.79,29.68,8,0,8,0.00
2013-6-15,78,64,51,52,48,39,84,59,30,29.93,29.79,9,0,9,0.00
2013-6-16,76,63,49,59,54,46,92,75,40,29.93,29.71,0,0,0,0.01
2013-6-17,84,66,55,64,58,53,97,78,39,29.89,29.77,4,0,4,0.05
2013-6-18,61,58,54,57,54,50,94,87,79,29.99,29.88,3,0,3,0.06
2013-6-19,77,59,48,58,47,40,96,69,27,30.16,29.94,6,0,6,0.01
2013-6-20,77,58,45,54,46,42,90,67,29,30.28,30.16,4,0,5,0.00
2013-6-21,85,67,52,60,52,43,87,61,28,30.25,30.19,6,0,6,0.00
2013-6-22,82,70,56,67,59,52,88,71,49,30.22,30.09,7,0,7,0.01
2013-6-23,87,71,64,75,67,62,94,87,58,30.14,29.93,7,0,7,0.60
2013-6-24,87,73,65,72,68,64,97,86,50,29.99,29.86,9,0,9,0.86
2013-6-25,87,73,64,73,67,64,98,85,50,29.93,29.73,4,0,4,0.66
2013-6-26,76,68,63,75,67,62,98,97,84,29.87,29.72,6,0,6,0.75
2013-6-27,71,64,60,66,62,59,98,94,85,29.86,29.78,6,0,6,0.03
2013-6-28,64,60,56,63,59,55,98,97,93,29.78,29.54,0,0,0,1.46
2013-6-29,82,71,63,73,66,62,100,86,57,29.69,29.52,12,0,12,0.05
2013-6-30,82,72,65,70,66,64,98,83,58,29.93,29.69,9,0,9,0.41
2013-7-1,76,70,66,73,68,65,98,93,76,30.07,29.92,10,0,10,0.41
2013-7-2,74,67,60,72,65,59,97,94,84,30.22,30.05,8,0,8,1.30
2013-7-3,87,71,60,73,66,59,98,85,58,30.21,30.11,7,0,7,0.17
2013-7-4,91,78,68,76,71,66,98,80,50,30.19,30.06,5,0,5,0.08
2013-7-5,91,80,70,76,71,68,97,77,50,30.14,30.01,3,0,3,0.00
2013-7-6,87,78,69,73,68,63,91,74,54,30.06,29.97,5,0,5,0.00
2013-7-7,88,76,66,72,67,62,92,76,47,30.02,29.91,5,0,6,0.68
2013-7-8,81,72,64,73,69,62,97,91,70,30.08,29.91,10,0,10,2.07
2013-7-9,73,68,64,68,65,62,97,91,81,30.12,30.06,8,0,8,0.00
2013-7-10,76,69,65,71,66,62,96,92,79,30.08,29.78,8,1,11,0.28
2013-7-11,77,72,65,76,69,61,98,91,73,29.97,29.76,3,0,3,0.21
2013-7-12,81,70,60,64,60,57,95,71,46,30.22,29.97,0,0,0,0.00
2013-7-13,79,68,59,67,62,56,96,80,53,30.33,30.22,7,0,7,0.00
2013-7-14,83,73,64,72,68,64,98,84,61,30.31,30.20,3,0,3,0.00
2013-7-15,87,76,66,72,67,63,98,77,53,30.21,30.10,3,0,3,0.00
2013-7-16,87,77,66,72,67,62,93,73,48,30.17,30.12,10,0,10,0.00
2013-7-17,89,80,66,73,69,64,95,69,52,30.18,29.96,11,0,11,0.00
2013-7-18,88,76,68,73,70,66,98,83,49,30.02,29.93,10,0,10,0.20
2013-7-19,91,79,68,78,72,67,99,80,53,29.94,29.68,7,0,7,0.00
2013-7-20,84,74,67,73,68,64,99,82,58,29.80,29.64,5,0,5,0.14
2013-7-21,78,70,64,66,63,58,95,80,57,30.00,29.80,7,0,7,0.00
2013-7-22,73,67,62,69,65,60,99,93,82,30.05,29.91,7,0,7,0.76
2013-7-23,70,66,63,70,65,61,100,99,92,29.92,29.55,3,0,3,2.30
2013-7-24,75,66,54,73,62,48,100,87,65,30.00,29.58,9,0,9,0.01
2013-7-25,70,60,49,61,54,46,95,80,58,30.13,30.00,6,0,6,0.00
2013-7-26,71,64,61,70,63,59,99,95,89,30.11,29.95,4,0,4,0.14
2013-7-27,80,69,58,64,60,55,97,75,44,30.05,29.98,7,0,7,0.00
2013-7-28,79,68,60,69,64,59,99,89,63,30.03,29.97,11,1,11,0.04
2013-7-29,80,68,62,69,65,61,100,90,62,30.06,29.95,11,0,11,0.25
2013-7-30,75,66,56,63,58,52,99,78,48,30.11,30.04,5,0,5,0.01
2013-7-31,78,67,56,62,58,50,98,74,39,30.15,30.04,4,0,4,0.00
2013-8-1,80,66,58,67,61,57,99,85,51,30.05,29.87,11,0,11,0.36
2013-8-2,77,68,62,68,62,55,100,84,47,29.88,29.77,5,0,5,0.19
2013-8-3,75,65,59,63,58,53,97,78,55,29.85,29.76,6,0,6,0.06
2013-8-4,73,62,55,61,55,51,94,79,56,29.90,29.80,7,0,7,0.00
2013-8-5,71,61,52,53,48,38,91,63,34,30.07,29.90,9,0,9,0.00
2013-8-6,74,61,47,58,50,44,95,70,38,30.17,30.06,6,0,8,0.00
2013-8-7,76,64,51,61,54,49,95,72,46,30.20,30.09,10,0,10,0.00
2013-8-8,81,69,60,70,64,56,98,86,65,30.11,29.99,8,0,8,0.15
2013-8-9,73,70,66,72,69,66,100,97,92,30.01,29.72,8,0,8,1.01
2013-8-10,76,67,56,66,60,50,100,80,48,30.03,29.78,8,0,8,0.01
2013-8-11,75,62,51,61,54,50,96,76,47,30.09,30.00,6,0,6,0.00
2013-8-12,77,65,55,62,57,53,97,77,46,30.03,29.92,6,0,6,0.00
2013-8-13,70,63,57,68,62,56,99,95,87,29.93,29.69,6,0,6,0.70
2013-8-14,70,63,54,64,56,50,100,77,56,29.95,29.67,6,0,6,0.00
2013-8-15,72,60,49,57,52,48,97,78,48,30.11,29.94,2,0,2,0.01
2013-8-16,75,61,50,60,54,49,98,79,45,30.20,30.10,3,0,3,0.00
2013-8-17,77,64,53,61,56,52,99,78,46,30.29,30.20,5,0,5,0.00
2013-8-18,75,64,54,65,59,54,99,84,62,30.29,30.08,2,0,2,0.00
2013-8-19,77,66,55,66,60,54,99,81,58,30.08,29.94,3,0,3,0.00
2013-8-20,80,69,60,67,62,59,99,80,54,30.10,29.99,2,0,2,0.00
2013-8-21,83,70,60,69,63,59,99,79,50,30.15,30.02,2,0,2,0.00
2013-8-22,81,70,62,69,64,60,95,83,61,30.03,29.80,3,0,3,0.00
2013-8-23,76,67,56,66,56,48,96,71,43,30.16,29.82,10,0,10,0.00
2013-8-24,75,60,48,58,50,44,95,72,36,30.34,30.16,6,0,6,0.00
2013-8-25,77,60,49,60,53,48,98,80,41,30.38,30.16,2,0,2,0.00
2013-8-26,76,67,60,69,64,55,99,90,71,30.17,29.87,3,0,3,0.29
2013-8-27,81,71,64,70,66,63,100,86,55,29.90,29.84,6,0,6,0.00
2013-8-28,84,69,61,71,66,61,100,90,55,30.02,29.85,8,0,8,0.76
2013-8-29,64,63,60,64,62,60,100,97,90,30.10,29.97,7,0,7,0.05
2013-8-30,80,68,59,70,64,59,100,88,59,30.04,29.80,3,0,3,0.00
2013-8-31,77,71,66,73,69,65,100,93,80,29.83,29.75,7,0,7,0.10
2013-9-1,81,73,66,72,70,66,100,91,62,29.88,29.78,5,0,5,0.44
2013-9-2,72,70,68,72,70,68,100,99,95,29.87,29.71,7,0,7,1.38
2013-9-3,73,67,60,70,65,58,100,94,76,29.80,29.70,0,0,4,0.00
2013-9-4,75,65,57,63,58,54,98,79,54,29.90,29.79,5,0,5,0.01
2013-9-5,66,58,45,60,51,40,100,80,41,30.17,29.85,10,0,10,0.03
2013-9-6,65,52,40,50,44,39,97,75,42,30.27,30.09,4,0,4,0.00
2013-9-7,73,58,47,58,51,44,94,80,44,30.09,29.85,2,0,2,0.01
2013-9-8,65,57,46,60,48,40,93,74,48,30.10,29.75,14,0,14,0.00
2013-9-9,68,54,40,50,44,38,95,71,43,30.24,30.09,5,0,5,0.01
2013-9-10,69,58,52,69,56,48,100,92,79,30.14,30.05,5,0,5,0.11
2013-9-11,89,80,67,76,72,67,100,80,58,30.06,29.90,9,0,9,0.00
2013-9-12,76,68,66,74,68,65,100,98,91,29.92,29.66,6,0,6,1.08
2013-9-13,71,63,54,67,62,52,100,95,81,29.78,29.60,5,0,5,0.12
2013-9-14,65,56,50,57,52,48,94,85,65,30.06,29.77,4,0,4,0.00
2013-9-15,66,55,44,55,49,42,98,81,50,30.16,30.03,1,0,1,0.01
2013-9-16,63,54,42,57,48,34,99,83,64,30.29,30.01,7,0,7,0.05
2013-9-17,61,47,36,48,40,33,95,76,46,30.46,30.28,6,0,6,0.00
2013-9-18,70,53,41,55,46,39,99,78,38,30.34,30.14,3,0,3,0.00
2013-9-19,74,57,46,58,50,44,99,80,40,30.15,30.04,7,0,7,0.00
2013-9-20,76,60,47,60,53,46,99,78,48,30.11,30.00,10,0,10,0.01
2013-9-21,72,61,51,62,56,49,99,84,60,30.02,29.70,11,1,11,0.00
2013-9-22,67,61,48,64,55,42,98,83,61,29.84,29.57,16,0,16,0.62
2013-9-23,49,45,44,42,39,38,86,79,68,30.01,29.84,8,0,9,0.00
2013-9-24,60,50,43,46,42,38,85,74,53,30.00,29.86,10,0,10,0.00
2013-9-25,63,53,46,52,47,42,93,79,60,30.01,29.89,6,0,6,0.00
2013-9-26,68,53,41,54,47,39,96,82,46,30.16,30.01,7,0,7,0.00
2013-9-27,66,56,50,55,51,48,95,82,58,30.28,30.16,5,0,5,0.00
2013-9-28,70,56,45,58,49,44,99,81,45,30.37,30.28,7,0,7,0.00
2013-9-29,68,54,43,56,48,42,99,81,52,30.29,30.12,6,0,7,0.01
2013-9-30,69,52,41,56,46,40,99,82,47,30.14,29.99,6,0,6,0.00
2013-10-1,73,58,42,57,52,42,100,81,48,30.00,29.86,8,0,8,0.00
2013-10-2,76,62,51,62,56,51,100,84,56,29.95,29.82,7,0,7,0.01
2013-10-3,72,60,51,55,51,47,96,75,42,30.09,29.94,3,0,3,0.00
2013-10-4,65,55,45,55,51,45,99,86,55,30.12,30.05,1,0,1,0.00
2013-10-5,62,58,54,55,51,44,95,80,58,30.14,30.07,2,0,2,0.00
2013-10-6,57,51,47,54,47,40,100,86,61,30.27,30.13,6,0,6,0.14
2013-10-7,70,57,50,69,56,50,100,97,84,30.17,29.74,17,1,17,0.87
2013-10-8,64,52,41,51,43,36,93,74,42,30.41,29.90,8,0,8,0.01
2013-10-9,65,48,34,49,40,32,99,76,38,30.52,30.40,6,0,6,0.00
2013-10-10,63,48,36,51,42,35,98,83,49,30.40,30.20,1,0,1,0.00
2013-10-11,67,53,42,52,46,40,98,82,40,30.21,30.14,3,0,3,0.00
2013-10-12,54,49,44,52,47,42,98,92,83,30.43,30.19,9,0,9,0.01
2013-10-13,55,47,40,51,43,38,98,86,67,30.48,30.41,4,0,5,0.00
2013-10-14,67,51,37,52,44,36,98,79,49,30.41,30.24,5,0,5,0.00
2013-10-15,62,56,49,53,50,44,93,81,68,30.28,30.18,6,0,6,0.00
2013-10-16,60,54,48,50,48,45,91,82,60,30.18,29.91,10,0,10,0.00
2013-10-17,74,56,47,56,48,45,97,76,39,29.91,29.69,7,0,7,0.00
2013-10-18,62,54,46,54,48,37,98,80,56,29.89,29.58,10,1,10,0.32
2013-10-19,65,51,39,46,40,35,92,69,43,29.96,29.73,6,0,6,0.00
2013-10-20,60,50,41,47,38,32,91,66,38,30.00,29.67,11,1,11,0.02
2013-10-21,65,49,35,44,38,32,95,69,39,30.11,29.96,5,0,5,0.00
2013-10-22,56,48,40,50,43,34,95,81,65,29.97,29.72,6,0,6,0.01
2013-10-23,54,42,34,37,32,27,89,68,38,29.79,29.59,3,0,3,0.01
2013-10-24,51,42,33,34,30,28,81,64,44,29.88,29.64,11,1,11,0.00
2013-10-25,46,36,30,36,27,23,94,71,41,30.13,29.88,10,0,10,0.00
2013-10-26,46,38,27,35,27,23,92,66,44,30.14,29.84,11,0,11,0.00
2013-10-27,52,43,32,35,30,25,77,60,42,30.02,29.76,8,0,8,0.00
2013-10-28,55,38,29,36,27,19,86,66,44,30.34,30.02,8,1,14,0.00
2013-10-29,48,32,22,25,18,12,85,60,25,30.45,30.34,4,0,4,0.00
2013-10-30,48,34,26,34,26,16,88,71,53,30.36,30.19,8,0,8,0.01
2013-10-31,56,40,29,56,38,26,99,93,88,30.25,29.73,9,0,9,0.19
2013-11-1,65,58,52,60,54,41,99,85,63,29.74,29.35,20,3,20,0.43
2013-11-2,64,50,39,48,41,36,95,75,43,29.75,29.57,6,0,6,0.14
2013-11-3,44,35,26,39,24,14,91,66,35,30.42,29.75,6,0,7,0.01
2013-11-4,43,29,21,20,15,9,79,58,31,30.72,30.42,8,0,8,0.00
2013-11-5,37,27,22,27,20,15,81,74,64,30.72,30.49,4,0,4,0.00
2013-11-6,57,44,32,42,35,26,86,73,54,30.49,29.97,13,1,13,0.00
2013-11-7,55,49,38,53,43,29,92,81,69,29.98,29.64,11,1,11,0.13
2013-11-8,43,34,28,30,24,21,83,68,51,30.04,29.78,9,1,9,0.00
2013-11-9,41,35,30,24,21,18,66,56,44,30.17,30.00,9,0,9,0.00
2013-11-10,39,36,32,37,33,25,94,89,67,30.00,29.71,6,0,9,0.10
2013-11-11,49,40,34,32,26,23,83,60,38,30.06,29.82,13,2,13,0.00
2013-11-12,40,30,24,31,18,12,75,60,51,30.16,29.83,14,1,14,0.00
2013-11-13,34,25,19,15,11,7,70,54,36,30.28,30.09,10,1,10,0.00
2013-11-14,48,33,25,27,21,13,79,61,40,30.09,30.00,9,1,9,0.00
2013-11-15,53,36,25,28,21,18,80,59,27,30.17,30.07,3,0,3,0.00
2013-11-16,60,40,30,29,25,20,74,57,27,30.30,30.16,4,0,4,0.00
2013-11-17,47,37,29,46,34,23,98,90,72,30.30,29.83,7,0,7,0.19
2013-11-18,62,54,44,58,46,35,100,78,44,29.83,29.46,22,2,22,0.34
2013-11-19,39,32,28,26,16,14,76,53,37,30.27,29.69,13,3,16,0.00
2013-11-20,40,29,22,16,12,8,65,51,29,30.62,30.26,10,1,10,0.00
2013-11-21,46,30,17,20,13,6,78,53,22,30.62,30.34,5,0,5,0.00
2013-11-22,36,34,30,34,30,20,95,86,67,30.34,29.77,1,0,1,0.01
2013-11-23,40,33,24,38,24,15,98,73,41,29.89,29.72,11,2,11,0.00
2013-11-24,24,18,13,17,3,-5,76,51,35,30.14,29.74,12,4,20,0.00
2013-11-25,28,19,11,10,-2,-9,54,39,23,30.34,30.13,11,1,11,0.00
2013-11-26,33,29,24,28,22,12,89,75,58,30.29,30.07,8,0,8,0.03
2013-11-27,48,39,31,48,38,28,99,96,90,30.07,29.22,10,2,14,2.47
2013-11-28,32,25,16,29,13,4,93,61,38,30.40,29.37,19,3,19,0.00
2013-11-29,30,18,12,10,5,0,76,59,31,30.74,30.39,8,0,8,0.00
2013-11-30,28,18,6,15,8,1,83,64,38,30.81,30.42,9,0,9,0.01
2013-12-1,35,30,26,29,24,16,90,79,65,30.42,30.03,5,0,5,0.00
2013-12-2,39,34,32,34,31,29,93,88,79,30.04,29.90,3,0,3,0.00
2013-12-3,46,35,29,37,30,25,97,84,54,29.92,29.83,6,0,6,0.00
2013-12-4,37,30,26,26,23,19,88,74,59,30.17,29.91,8,1,8,0.00
2013-12-5,34,32,25,33,28,21,96,88,83,30.20,29.88,2,0,2,0.09
2013-12-6,41,37,32,41,35,26,98,91,76,30.12,29.83,7,0,7,0.08
2013-12-7,35,28,21,28,20,11,90,70,49,30.42,30.05,10,1,10,0.02
2013-12-8,27,23,18,14,11,9,75,61,47,30.56,30.42,6,0,6,0.00
2013-12-9,26,24,22,24,19,10,91,80,56,30.49,29.85,5,0,8,0.00
2013-12-10,32,26,18,27,22,10,94,84,67,29.92,29.75,6,1,9,0.00
2013-12-11,30,22,17,16,11,8,81,63,49,30.12,29.91,14,2,14,0.01
2013-12-12,22,14,6,14,1,-5,81,57,35,30.25,29.99,8,1,8,0.00
2013-12-13,20,9,2,9,0,-8,81,66,52,30.41,29.91,5,0,7,0.00
2013-12-14,12,6,0,4,-6,-10,80,58,37,30.61,30.23,5,0,5,0.00
2013-12-15,27,17,9,23,13,4,86,83,80,30.24,29.46,12,1,12,0.00
2013-12-16,26,16,1,15,6,-7,85,66,43,30.17,29.67,15,2,15,0.00
2013-12-17,12,4,-9,7,-4,-15,85,71,48,30.25,29.99,4,0,4,0.00
2013-12-18,35,19,11,22,14,7,90,80,57,30.00,29.87,9,1,9,0.01
2013-12-19,36,27,18,25,21,15,91,77,57,30.05,29.90,5,0,8,0.00
2013-12-20,40,33,28,31,28,24,95,82,66,30.07,29.87,5,0,5,0.01
2013-12-21,42,36,32,36,34,31,98,93,77,29.89,29.81,4,0,4,0.26
2013-12-22,36,32,29,36,32,29,100,100,98,30.02,29.74,14,1,14,0.18
2013-12-23,32,30,29,32,30,29,100,100,100,30.08,29.93,3,0,3,0.34
2013-12-24,34,25,14,31,20,7,100,83,55,30.18,30.02,7,1,7,0.00
2013-12-25,23,11,3,7,1,-6,77,64,41,30.51,30.18,8,1,8,0.00
2013-12-26,22,16,10,18,12,4,90,82,69,30.47,30.08,3,0,3,0.00
2013-12-27,34,21,14,26,16,12,94,83,59,30.20,30.14,7,1,7,0.07
2013-12-28,36,27,16,30,23,13,92,83,70,30.15,29.94,6,1,6,0.06
2013-12-29,34,31,26,32,29,25,98,92,86,29.97,29.50,0,0,0,0.05
2013-12-30,35,20,4,35,14,-3,99,76,69,30.13,29.73,9,1,9,0.05
2013-12-31,18,6,-2,4,-2,-9,84,69,45,30.12,30.00,3,0,3,0.00
2014-1-1,21,11,4,8,4,0,86,73,51,30.37,30.11,8,1,8,0.00
2014-1-2,10,6,-2,5,0,-8,82,77,75,30.36,30.01,12,0,12,0.00